Time;durP1;ratioP1;P1;durP2;ratioP2;P2;SDS_P1;SDS_P2;PMS_P1;PMS_P2;Temp;Humidity;BMP_temperature;BMP_pressure;BME280_temperature;BME280_humidity;BME280_pressure;Samples;Min_cycle;Max_cycle;Signal;HPM_P1;HPM_P2
2022/06/11 00:01:43;;;;;;;6.10;4.90;;;11.70;99.90;;;;;;5039952;28;20185;-84
2022/06/11 00:04:12;;;;;;;6.20;5.00;;;11.70;99.90;;;;;;5041801;28;20253;-84
2022/06/11 00:06:42;;;;;;;8.83;4.90;;;11.60;99.90;;;;;;5041745;28;20178;-84
2022/06/11 00:09:08;;;;;;;6.97;5.07;;;11.60;99.90;;;;;;5040506;28;20210;-84
2022/06/11 00:11:35;;;;;;;5.80;4.50;;;11.60;99.90;;;;;;5040436;28;20189;-84
2022/06/11 00:14:01;;;;;;;5.40;4.27;;;11.60;99.90;;;;;;5040973;28;20291;-84
2022/06/11 00:16:27;;;;;;;5.53;4.13;;;;;;;;;;5044955;28;20200;-83
2022/06/11 00:18:56;;;;;;;6.40;4.70;;;11.50;99.90;;;;;;5054852;28;20251;-83
2022/06/11 00:21:24;;;;;;;5.33;4.53;;;11.50;99.90;;;;;;5051969;28;20184;-84
2022/06/11 00:23:50;;;;;;;10.00;4.70;;;11.50;99.90;;;;;;5043735;28;20178;-84
2022/06/11 00:26:16;;;;;;;5.50;4.27;;;11.50;99.90;;;;;;5042097;28;20189;-84
2022/06/11 00:28:42;;;;;;;7.83;4.77;;;11.40;99.90;;;;;;5042177;28;20259;-84
2022/06/11 00:31:08;;;;;;;5.30;4.30;;;11.40;99.90;;;;;;5040211;28;20207;-84
2022/06/11 00:33:36;;;;;;;6.77;4.50;;;11.40;99.90;;;;;;5039851;28;20213;-84
2022/06/11 00:36:04;;;;;;;4.97;4.27;;;11.30;99.90;;;;;;5040554;28;20259;-84
2022/06/11 00:38:30;;;;;;;6.50;4.13;;;11.40;99.90;;;;;;5040433;28;20607;-84
2022/06/11 00:40:55;;;;;;;7.00;4.30;;;11.30;99.90;;;;;;5040128;28;20180;-84
2022/06/11 00:43:25;;;;;;;10.33;4.70;;;11.30;99.90;;;;;;5040160;28;20288;-84
2022/06/11 00:46:09;;;;;;;6.67;4.37;;;11.30;99.90;;;;;;5041408;28;20181;-84
2022/06/11 00:48:40;;;;;;;8.30;4.87;;;11.30;99.90;;;;;;5040330;28;20210;-84
2022/06/11 00:51:13;;;;;;;8.63;4.77;;;11.30;99.90;;;;;;5039366;28;20262;-84
2022/06/11 00:53:43;;;;;;;7.87;4.80;;;11.30;99.90;;;;;;5039042;28;20196;-84
2022/06/11 00:56:16;;;;;;;7.37;4.80;;;11.20;99.90;;;;;;5040403;28;20194;-84
2022/06/11 00:58:45;;;;;;;5.87;4.57;;;11.20;99.90;;;;;;5039331;28;20236;-84
2022/06/11 01:01:14;;;;;;;5.13;4.27;;;11.20;99.90;;;;;;5039447;28;20278;-84
2022/06/11 01:03:44;;;;;;;5.70;4.53;;;11.20;99.90;;;;;;5039319;28;20524;-85
2022/06/11 01:06:34;;;;;;;6.60;4.00;;;11.20;99.90;;;;;;5038892;28;20186;-84
2022/06/11 01:09:20;;;;;;;5.50;4.67;;;11.10;99.90;;;;;;5038774;28;20228;-84
2022/06/11 01:11:54;;;;;;;6.47;4.83;;;11.10;99.90;;;;;;5039335;28;20637;-85
2022/06/11 01:14:46;;;;;;;7.93;4.70;;;11.10;99.90;;;;;;5040193;28;20533;-85
2022/06/11 01:17:37;;;;;;;5.93;4.40;;;11.10;99.90;;;;;;5039857;28;20171;-84
2022/06/11 01:20:09;;;;;;;6.63;5.23;;;11.10;99.90;;;;;;5039356;28;20198;-84
2022/06/11 01:22:43;;;;;;;7.00;5.00;;;11.10;99.90;;;;;;5040545;28;20168;-84
2022/06/11 01:25:29;;;;;;;10.47;4.87;;;11.10;99.90;;;;;;5040466;28;20165;-84
2022/06/11 01:28:19;;;;;;;5.30;4.30;;;11.00;99.90;;;;;;5039881;28;20553;-84
2022/06/11 01:31:07;;;;;;;5.20;4.53;;;11.00;99.90;;;;;;5039794;28;20191;-84
2022/06/11 01:34:00;;;;;;;5.57;4.53;;;10.90;99.90;;;;;;5041048;28;20229;-84
2022/06/11 01:36:35;;;;;;;5.23;4.07;;;10.90;99.90;;;;;;5040427;28;20167;-84
2022/06/11 01:39:25;;;;;;;5.90;3.70;;;10.90;99.90;;;;;;5039945;28;20197;-85
2022/06/11 01:42:01;;;;;;;4.77;4.27;;;10.90;99.90;;;;;;5053929;28;20162;-83
2022/06/11 01:44:34;;;;;;;8.00;4.33;;;10.90;99.90;;;;;;5040012;28;20623;-83
2022/06/11 01:47:03;;;;;;;5.03;4.40;;;10.80;99.90;;;;;;5035707;28;20228;-83
2022/06/11 01:49:29;;;;;;;4.53;4.03;;;10.80;99.90;;;;;;5035436;28;20198;-83
2022/06/11 01:52:16;;;;;;;6.33;4.40;;;10.80;99.90;;;;;;5040945;28;20668;-85
2022/06/11 01:55:19;;;;;;;6.57;4.33;;;10.80;99.90;;;;;;5040478;28;20205;-84
2022/06/11 01:57:45;;;;;;;6.93;3.87;;;;;;;;;;5039228;28;20270;-85
2022/06/11 02:00:26;;;;;;;9.03;4.20;;;10.70;99.90;;;;;;5038556;28;20521;-84
2022/06/11 02:03:13;;;;;;;7.23;4.03;;;10.70;99.90;;;;;;5039271;28;20226;-85
2022/06/11 02:05:53;;;;;;;4.30;3.47;;;10.70;99.90;;;;;;5039200;28;20162;-85
2022/06/11 02:08:48;;;;;;;5.17;4.00;;;10.80;99.90;;;;;;5039150;28;20204;-85
2022/06/11 02:11:18;;;;;;;9.10;4.73;;;10.80;99.90;;;;;;5021050;28;20256;-84
2022/06/11 02:14:20;;;;;;;6.03;3.73;;;10.80;99.90;;;;;;5044712;28;20224;-84
2022/06/11 02:16:57;;;;;;;6.73;3.80;;;10.70;99.90;;;;;;5042924;28;20178;-84
2022/06/11 02:19:37;;;;;;;4.30;3.43;;;10.70;99.90;;;;;;5038100;28;20219;-85
2022/06/11 02:22:10;;;;;;;5.93;3.40;;;10.60;99.90;;;;;;5038771;28;20158;-85
2022/06/11 02:24:41;;;;;;;3.93;3.53;;;10.60;99.90;;;;;;5038145;28;20171;-85
2022/06/11 02:27:12;;;;;;;5.73;3.70;;;10.60;99.90;;;;;;5038268;28;20166;-85
2022/06/11 02:29:39;;;;;;;4.40;3.53;;;10.60;99.90;;;;;;5037437;28;20204;-85
2022/06/11 02:32:17;;;;;;;4.63;3.23;;;11.80;99.90;;;;;;5038680;28;20274;-85
2022/06/11 02:34:59;;;;;;;4.17;3.37;;;10.60;99.90;;;;;;5038177;28;20211;-85
2022/06/11 02:37:36;;;;;;;6.00;3.73;;;10.60;99.90;;;;;;5038184;28;20552;-85
2022/06/11 02:40:11;;;;;;;4.63;3.60;;;10.60;99.90;;;;;;5039173;28;20722;-85
2022/06/11 02:42:37;;;;;;;6.60;3.97;;;10.60;99.90;;;;;;5038861;28;20263;-84
2022/06/11 02:45:04;;;;;;;4.87;3.80;;;10.50;99.90;;;;;;5040531;28;20171;-85
2022/06/11 02:47:30;;;;;;;7.07;3.63;;;10.50;99.90;;;;;;5039013;28;20176;-85
2022/06/11 02:49:56;;;;;;;5.47;3.80;;;10.50;99.90;;;;;;5038153;28;20201;-85
2022/06/11 02:52:24;;;;;;;6.80;3.40;;;10.50;99.90;;;;;;5038002;28;20174;-85
2022/06/11 02:54:51;;;;;;;5.97;3.70;;;10.50;99.90;;;;;;5038704;28;20209;-85
2022/06/11 02:57:21;;;;;;;6.53;4.00;;;9.40;99.90;;;;;;5038517;28;20549;-85
2022/06/11 02:59:48;;;;;;;7.30;3.90;;;10.40;99.90;;;;;;5038848;28;20199;-84
2022/06/11 03:02:15;;;;;;;5.70;3.93;;;10.50;99.90;;;;;;5038631;28;20182;-85
2022/06/11 03:04:41;;;;;;;5.13;3.40;;;10.40;99.90;;;;;;5039414;28;20178;-85
2022/06/11 03:07:10;;;;;;;5.17;3.60;;;10.40;99.90;;;;;;5039486;28;20270;-85
2022/06/11 03:09:39;;;;;;;4.90;3.57;;;10.30;99.90;;;;;;5039049;28;20282;-85
2022/06/11 03:12:07;;;;;;;5.10;3.50;;;10.30;99.90;;;;;;5040066;28;20174;-85
2022/06/11 03:14:33;;;;;;;3.87;3.40;;;10.30;99.90;;;;;;5038481;28;20198;-85
2022/06/11 03:16:59;;;;;;;4.33;3.70;;;10.30;99.90;;;;;;5038590;28;20185;-85
2022/06/11 03:19:25;;;;;;;6.87;3.27;;;10.30;99.90;;;;;;5039116;28;20199;-85
2022/06/11 03:21:55;;;;;;;4.03;3.50;;;10.70;99.90;;;;;;5043149;28;20178;-85
2022/06/11 03:24:23;;;;;;;6.40;3.20;;;10.20;99.90;;;;;;5045907;28;20182;-85
2022/06/11 03:26:49;;;;;;;5.63;4.03;;;10.20;99.90;;;;;;5054465;28;20188;-84
2022/06/11 03:29:17;;;;;;;4.67;3.17;;;10.10;99.90;;;;;;5056288;28;20194;-85
2022/06/11 03:31:46;;;;;;;6.03;4.00;;;10.10;99.90;;;;;;5051662;28;20189;-85
2022/06/11 03:34:13;;;;;;;4.10;3.27;;;10.10;99.90;;;;;;5042217;28;20263;-85
2022/06/11 03:36:40;;;;;;;5.03;3.83;;;10.10;99.90;;;;;;5043033;28;20211;-85
2022/06/11 03:39:06;;;;;;;4.00;3.30;;;10.10;99.90;;;;;;5042076;28;20195;-85
2022/06/11 03:41:33;;;;;;;4.83;4.00;;;10.10;99.90;;;;;;5042048;28;20664;-85
2022/06/11 03:43:59;;;;;;;6.97;3.77;;;8.20;99.90;;;;;;5042061;28;20198;-85
2022/06/11 03:46:26;;;;;;;5.77;3.53;;;10.10;99.90;;;;;;5042150;28;20187;-85
2022/06/11 03:48:52;;;;;;;4.40;3.57;;;10.10;99.90;;;;;;5042740;28;20244;-85
2022/06/11 03:51:19;;;;;;;5.13;3.47;;;10.10;99.90;;;;;;5042846;28;20184;-85
2022/06/11 03:53:46;;;;;;;4.07;3.60;;;8.90;99.90;;;;;;5041646;28;20207;-85
2022/06/11 03:56:13;;;;;;;6.17;3.50;;;10.20;99.90;;;;;;5042824;28;20178;-85
2022/06/11 03:58:41;;;;;;;4.07;3.27;;;10.30;99.90;;;;;;5042052;28;20747;-85
2022/06/11 04:01:16;;;;;;;5.57;3.80;;;9.80;99.90;;;;;;5042558;28;20194;-85
2022/06/11 04:03:49;;;;;;;3.93;3.10;;;10.30;99.90;;;;;;5043935;28;20617;-85
2022/06/11 04:06:17;;;;;;;5.20;3.20;;;10.30;99.90;;;;;;5042030;28;20533;-85
2022/06/11 04:08:42;;;;;;;5.83;3.40;;;10.30;99.90;;;;;;5044158;28;20213;-85
2022/06/11 04:11:09;;;;;;;5.40;3.10;;;10.30;99.90;;;;;;5042687;28;20184;-85
2022/06/11 04:13:37;;;;;;;3.47;2.97;;;10.30;99.90;;;;;;5042742;28;20219;-85
2022/06/11 04:16:04;;;;;;;3.87;3.13;;;10.30;99.90;;;;;;5042115;28;20178;-85
2022/06/11 04:18:31;;;;;;;3.93;3.13;;;10.30;99.90;;;;;;5041965;28;20194;-85
2022/06/11 04:20:59;;;;;;;4.20;3.13;;;10.30;99.90;;;;;;5042376;28;20194;-86
2022/06/11 04:23:29;;;;;;;6.73;3.10;;;10.40;99.90;;;;;;5041977;28;20539;-86
2022/06/11 04:26:01;;;;;;;5.57;2.70;;;10.40;99.90;;;;;;5042329;28;20186;-85
2022/06/11 04:28:29;;;;;;;3.93;3.30;;;10.50;99.90;;;;;;5042637;28;20198;-85
2022/06/11 04:30:57;;;;;;;4.20;2.80;;;10.50;99.90;;;;;;5051602;28;20176;-83
2022/06/11 04:33:23;;;;;;;4.73;3.10;;;10.50;99.90;;;;;;5059474;28;20186;-84
2022/06/11 04:35:50;;;;;;;6.33;3.00;;;10.60;99.90;;;;;;5047429;28;20194;-84
2022/06/11 04:38:16;;;;;;;6.80;3.33;;;10.70;99.90;;;;;;5036768;28;20229;-84
2022/06/11 04:40:43;;;;;;;3.23;2.63;;;10.70;99.90;;;;;;5036374;28;20182;-84
2022/06/11 04:43:09;;;;;;;2.90;2.53;;;10.90;99.90;;;;;;5043091;28;20174;-86
2022/06/11 04:45:35;;;;;;;3.63;2.90;;;10.90;99.90;;;;;;5042116;28;20334;-85
2022/06/11 04:48:01;;;;;;;4.00;2.70;;;;;;;;;;5042993;28;20188;-86
2022/06/11 04:50:27;;;;;;;5.70;2.40;;;11.10;99.90;;;;;;5042495;28;20213;-86
2022/06/11 04:52:53;;;;;;;3.77;2.57;;;11.10;99.90;;;;;;5041325;28;20182;-85
2022/06/11 04:55:19;;;;;;;3.00;2.40;;;11.20;99.90;;;;;;5041193;28;20181;-86
2022/06/11 04:57:45;;;;;;;2.67;2.17;;;11.20;99.90;;;;;;5042056;28;20182;-86
2022/06/11 05:00:16;;;;;;;2.60;2.40;;;11.30;99.90;;;;;;5041200;28;20189;-85
2022/06/11 05:02:42;;;;;;;2.73;2.40;;;11.30;99.90;;;;;;5041954;28;20170;-86
2022/06/11 05:05:08;;;;;;;3.27;2.40;;;11.40;99.90;;;;;;5040977;28;20275;-86
2022/06/11 05:07:34;;;;;;;3.17;2.47;;;11.40;99.90;;;;;;5041533;28;20707;-87
2022/06/11 05:10:00;;;;;;;2.53;2.20;;;11.50;99.90;;;;;;5044402;28;20232;-85
2022/06/11 05:12:28;;;;;;;3.17;2.40;;;11.50;99.90;;;;;;5057298;28;20202;-85
2022/06/11 05:14:54;;;;;;;3.30;2.37;;;11.60;99.90;;;;;;5057532;28;20191;-86
2022/06/11 05:17:19;;;;;;;3.33;2.33;;;11.60;99.90;;;;;;5042641;28;20189;-86
2022/06/11 05:19:45;;;;;;;3.00;2.10;;;;;;;;;;5038556;28;20668;-85
2022/06/11 05:22:13;;;;;;;3.20;2.37;;;11.70;99.90;;;;;;5038530;28;20628;-86
2022/06/11 05:24:39;;;;;;;3.43;2.40;;;11.70;99.90;;;;;;5038559;28;20236;-86
2022/06/11 05:27:11;;;;;;;3.73;2.60;;;11.80;99.90;;;;;;5038303;28;20189;-86
2022/06/11 05:29:48;;;;;;;4.00;2.37;;;11.80;99.90;;;;;;5039369;28;20289;-87
2022/06/11 05:32:16;;;;;;;2.80;2.10;;;11.40;99.90;;;;;;5039378;28;20592;-86
2022/06/11 05:34:43;;;;;;;5.67;2.60;;;11.90;99.90;;;;;;5038795;28;20663;-86
2022/06/11 05:37:10;;;;;;;3.73;2.33;;;12.00;99.90;;;;;;5038917;28;20184;-85
2022/06/11 05:39:36;;;;;;;3.50;2.50;;;12.00;99.90;;;;;;5038818;28;20202;-86
2022/06/11 05:42:02;;;;;;;2.33;2.13;;;12.00;99.90;;;;;;5038233;28;20178;-86
2022/06/11 05:44:28;;;;;;;5.27;2.40;;;12.10;99.90;;;;;;5036883;28;20215;-85
2022/06/11 05:46:54;;;;;;;3.17;2.43;;;12.20;99.90;;;;;;5039532;28;20189;-86
2022/06/11 05:49:24;;;;;;;2.27;2.07;;;12.30;99.90;;;;;;5038097;28;20668;-86
2022/06/11 05:51:54;;;;;;;4.13;2.03;;;12.30;99.90;;;;;;5038179;28;20241;-86
2022/06/11 05:54:25;;;;;;;4.73;2.27;;;12.40;99.90;;;;;;5037995;28;20297;-86
2022/06/11 05:56:53;;;;;;;3.17;2.30;;;12.50;99.90;;;;;;5038101;28;20175;-86
2022/06/11 05:59:23;;;;;;;2.83;2.00;;;12.70;99.90;;;;;;5037692;28;20219;-86
2022/06/11 06:01:50;;;;;;;2.37;2.17;;;12.70;99.90;;;;;;5037420;28;20213;-86
2022/06/11 06:04:16;;;;;;;3.03;2.00;;;12.80;99.90;;;;;;5038156;28;20189;-86
2022/06/11 06:06:42;;;;;;;3.00;2.20;;;12.90;99.90;;;;;;5038081;28;20640;-86
2022/06/11 06:09:08;;;;;;;3.73;2.10;;;13.00;99.90;;;;;;5039963;28;20312;-86
2022/06/11 06:11:34;;;;;;;2.47;2.20;;;;;;;;;;5039001;28;20316;-87
2022/06/11 06:14:00;;;;;;;3.23;2.10;;;13.20;99.90;;;;;;5039360;28;20229;-86
2022/06/11 06:16:29;;;;;;;3.50;2.20;;;13.30;99.90;;;;;;5039330;28;20243;-86
2022/06/11 06:18:56;;;;;;;2.83;2.33;;;13.50;99.90;;;;;;5038763;28;20194;-86
2022/06/11 06:21:24;;;;;;;3.33;2.10;;;13.50;99.90;;;;;;5038747;28;20241;-87
2022/06/11 06:23:50;;;;;;;2.57;2.03;;;13.60;99.90;;;;;;5038635;28;20241;-87
2022/06/11 06:26:17;;;;;;;2.67;2.27;;;13.70;99.90;;;;;;5039537;28;20182;-87
2022/06/11 06:28:42;;;;;;;3.73;2.60;;;13.90;99.90;;;;;;5038970;28;20200;-86
2022/06/11 06:31:10;;;;;;;2.23;2.03;;;14.00;99.90;;;;;;5038859;28;20245;-87
2022/06/11 06:33:36;;;;;;;4.63;2.30;;;14.00;99.90;;;;;;5038742;28;20208;-87
2022/06/11 06:36:05;;;;;;;3.30;2.23;;;14.10;99.90;;;;;;5039857;28;20177;-87
2022/06/11 06:38:31;;;;;;;2.97;2.10;;;14.30;99.90;;;;;;5039620;28;20201;-86
2022/06/11 06:40:57;;;;;;;2.90;2.30;;;14.40;99.90;;;;;;5039764;28;20261;-86
2022/06/11 06:43:24;;;;;;;3.70;2.17;;;14.40;99.90;;;;;;5040168;28;20202;-86
2022/06/11 06:45:50;;;;;;;3.37;1.93;;;14.60;99.90;;;;;;5040578;28;20641;-86
2022/06/11 06:48:16;;;;;;;5.33;2.13;;;14.80;99.90;;;;;;5041005;28;20197;-87
2022/06/11 06:50:42;;;;;;;3.87;2.00;;;14.80;99.90;;;;;;5041736;28;20174;-86
2022/06/11 06:53:08;;;;;;;2.20;2.00;;;14.90;99.90;;;;;;5044071;28;20277;-86
2022/06/11 06:55:34;;;;;;;3.57;2.10;;;15.10;99.90;;;;;;5054164;28;20182;-85
2022/06/11 06:57:59;;;;;;;2.33;1.90;;;15.30;99.90;;;;;;5053539;28;20178;-85
2022/06/11 07:00:26;;;;;;;3.43;1.70;;;15.30;99.90;;;;;;5045401;28;20178;-86
2022/06/11 07:02:54;;;;;;;3.13;1.97;;;15.40;99.90;;;;;;5041226;28;20172;-87
2022/06/11 07:05:22;;;;;;;2.13;1.80;;;15.50;99.90;;;;;;5046963;28;20174;-86
2022/06/11 07:07:49;;;;;;;2.30;2.10;;;15.70;99.90;;;;;;5048428;28;20177;-86
2022/06/11 07:10:17;;;;;;;2.27;1.70;;;15.70;99.90;;;;;;5046608;28;20171;-86
2022/06/11 07:12:43;;;;;;;2.77;2.20;;;15.90;99.90;;;;;;5040983;28;20181;-85
2022/06/11 07:15:09;;;;;;;20.00;2.37;;;16.00;99.90;;;;;;5035840;28;20201;-85
2022/06/11 07:17:42;;;;;;;2.77;1.83;;;16.20;99.90;;;;;;5035204;28;20178;-85
2022/06/11 07:20:12;;;;;;;3.87;1.80;;;16.30;99.90;;;;;;5034473;28;20266;-85
2022/06/11 07:22:44;;;;;;;4.00;2.00;;;16.40;99.90;;;;;;5034406;28;20183;-85
2022/06/11 07:25:11;;;;;;;2.60;1.90;;;16.40;99.90;;;;;;5034937;28;20170;-85
2022/06/11 07:27:41;;;;;;;5.03;2.00;;;16.50;99.90;;;;;;5033489;28;20177;-85
2022/06/11 07:30:13;;;;;;;2.40;2.20;;;16.50;99.90;;;;;;5033074;28;20198;-84
2022/06/11 07:32:40;;;;;;;4.53;1.80;;;16.80;99.90;;;;;;5033556;28;20178;-85
2022/06/11 07:35:11;;;;;;;4.90;2.00;;;16.80;99.90;;;;;;5034612;28;20258;-85
2022/06/11 07:37:38;;;;;;;3.20;1.90;;;17.00;99.90;;;;;;5036614;28;20582;-85
2022/06/11 07:40:05;;;;;;;2.10;1.90;;;17.10;99.90;;;;;;5037252;28;20194;-86
2022/06/11 07:42:31;;;;;;;4.30;1.73;;;17.20;99.90;;;;;;5038007;28;20170;-86
2022/06/11 07:44:57;;;;;;;3.67;2.03;;;;;;;;;;5037034;28;20204;-85
2022/06/11 07:50:11;;;;;;;3.03;1.80;;;17.50;99.90;;;;;;5039169;28;20208;-86
2022/06/11 07:52:38;;;;;;;4.27;2.70;;;17.70;99.90;;;;;;5036611;28;20183;-86
2022/06/11 07:55:04;;;;;;;3.03;2.07;;;18.30;99.90;;;;;;5038180;28;20206;-86
2022/06/11 07:57:29;;;;;;;2.77;1.80;;;18.00;99.90;;;;;;5038671;28;20179;-85
2022/06/11 07:59:55;;;;;;;3.60;2.20;;;;;;;;;;5036963;28;20198;-86
2022/06/11 08:02:21;;;;;;;2.00;1.80;;;18.40;99.90;;;;;;5037912;28;20182;-85
2022/06/11 08:04:47;;;;;;;2.83;2.13;;;18.80;99.90;;;;;;5036635;28;20188;-85
2022/06/11 08:07:13;;;;;;;3.10;2.00;;;;;;;;;;5039004;28;20186;-85
2022/06/11 08:09:39;;;;;;;3.90;1.93;;;;;;;;;;5039672;28;20226;-85
2022/06/11 08:12:05;;;;;;;3.07;1.93;;;18.70;99.90;;;;;;5039841;28;20190;-85
2022/06/11 08:14:31;;;;;;;2.73;1.90;;;18.90;99.90;;;;;;5041226;28;20202;-85
2022/06/11 08:16:57;;;;;;;2.30;1.80;;;;;;;;;;5041437;28;20238;-85
2022/06/11 08:19:23;;;;;;;2.93;1.67;;;;;;;;;;5042676;28;20252;-85
2022/06/11 08:21:49;;;;;;;1.93;1.70;;;;;;;;;;5043491;28;20175;-85
2022/06/11 08:24:15;;;;;;;2.27;1.90;;;;;;;;;;5041802;28;20192;-85
2022/06/11 08:26:41;;;;;;;2.20;1.83;;;;;;;;;;5042181;28;20237;-85
2022/06/11 08:29:07;;;;;;;2.70;2.00;;;;;;;;;;5042201;28;20207;-85
2022/06/11 08:31:33;;;;;;;2.27;1.77;;;;;;;;;;5041969;28;20179;-86
2022/06/11 08:33:59;;;;;;;2.00;1.60;;;20.10;99.90;;;;;;5041436;28;20252;-86
2022/06/11 08:36:25;;;;;;;1.67;1.50;;;;;;;;;;5043862;28;20181;-86
2022/06/11 08:38:50;;;;;;;1.73;1.60;;;20.30;99.90;;;;;;5043564;28;20205;-86
2022/06/11 08:41:20;;;;;;;1.97;1.50;;;20.30;99.90;;;;;;5043880;28;20192;-86
2022/06/11 08:43:59;;;;;;;2.87;1.57;;;20.40;99.90;;;;;;5046557;28;20250;-85
2022/06/11 08:46:29;;;;;;;1.83;1.70;;;20.40;99.90;;;;;;5053979;28;20177;-84
2022/06/11 08:49:06;;;;;;;3.27;1.83;;;20.50;99.90;;;;;;5047084;28;20363;-85
2022/06/11 08:51:58;;;;;;;2.27;1.90;;;20.40;99.90;;;;;;5041550;28;20188;-85
2022/06/11 08:54:28;;;;;;;3.27;1.53;;;20.50;99.90;;;;;;5041180;28;20201;-85
2022/06/11 08:57:12;;;;;;;2.20;1.90;;;20.50;99.90;;;;;;5040418;28;20536;-85
2022/06/11 08:59:49;;;;;;;3.20;2.03;;;20.70;99.90;;;;;;5040487;28;20194;-85
2022/06/11 09:02:53;;;;;;;3.67;1.70;;;20.90;99.90;;;;;;5039701;28;20186;-85
2022/06/11 09:05:45;;;;;;;1.60;1.50;;;21.10;99.90;;;;;;5040750;28;20261;-86
2022/06/11 09:08:26;;;;;;;1.80;1.70;;;21.50;99.90;;;;;;5041744;28;20215;-86
2022/06/11 09:11:13;;;;;;;2.07;1.63;;;21.50;99.90;;;;;;5041545;28;20174;-84
2022/06/11 09:14:16;;;;;;;2.30;1.63;;;21.80;99.90;;;;;;5040300;28;20223;-85
2022/06/11 09:17:05;;;;;;;4.77;1.70;;;22.00;99.90;;;;;;5031276;28;20194;-85
2022/06/11 09:19:44;;;;;;;2.10;1.80;;;22.20;99.90;;;;;;5041697;28;20196;-85
2022/06/11 09:22:32;;;;;;;2.47;1.47;;;22.20;99.90;;;;;;5039995;28;20172;-86
2022/06/11 09:25:10;;;;;;;6.20;1.80;;;22.30;99.90;;;;;;5039943;28;20279;-85
2022/06/11 09:27:37;;;;;;;2.97;1.70;;;22.50;99.90;;;;;;5041531;28;20181;-85
2022/06/11 09:30:17;;;;;;;3.17;1.70;;;22.60;99.90;;;;;;5042837;28;20754;-85
2022/06/11 09:32:52;;;;;;;1.50;1.40;;;22.70;99.90;;;;;;5041901;28;20268;-85
2022/06/11 09:35:27;;;;;;;1.50;1.40;;;22.80;99.90;;;;;;5043307;28;20627;-86
2022/06/11 09:38:25;;;;;;;3.20;1.43;;;22.80;99.90;;;;;;5043007;28;20189;-85
2022/06/11 09:41:06;;;;;;;3.10;1.47;;;22.80;99.90;;;;;;5047497;28;20177;-84
2022/06/11 09:43:46;;;;;;;1.53;1.40;;;22.90;99.90;;;;;;5055174;28;20184;-85
2022/06/11 09:46:43;;;;;;;2.13;1.60;;;22.90;99.90;;;;;;5047969;28;20254;-85
2022/06/11 09:49:33;;;;;;;2.70;1.60;;;22.80;99.90;;;;;;5044939;28;20223;-86
2022/06/11 09:52:15;;;;;;;2.83;1.20;;;22.80;99.90;;;;;;5043579;28;20201;-85
2022/06/11 09:55:21;;;;;;;1.23;1.13;;;22.50;99.90;;;;;;5045174;28;20195;-84
2022/06/11 09:58:05;;;;;;;2.23;1.50;;;22.40;99.90;;;;;;5036865;28;20181;-84
2022/06/11 10:00:38;;;;;;;2.50;1.40;;;22.40;99.90;;;;;;5036093;28;20184;-85
2022/06/11 10:03:32;;;;;;;1.70;1.33;;;22.50;99.90;;;;;;5037155;28;20185;-84
2022/06/11 10:06:11;;;;;;;2.57;1.40;;;22.60;99.90;;;;;;5037103;28;20703;-84
2022/06/11 10:08:52;;;;;;;2.03;1.00;;;23.30;99.90;;;;;;5037778;28;20212;-84
2022/06/11 10:11:41;;;;;;;1.10;1.00;;;23.60;99.90;;;;;;5036260;28;20539;-85
2022/06/11 10:14:29;;;;;;;3.93;1.40;;;24.20;99.90;;;;;;5036428;28;20216;-84
2022/06/11 10:17:12;;;;;;;2.37;1.40;;;24.40;99.90;;;;;;5037697;28;20164;-85
2022/06/11 10:19:47;;;;;;;2.47;0.90;;;24.80;99.90;;;;;;5036183;28;20650;-84
2022/06/11 10:22:20;;;;;;;1.10;1.00;;;24.90;99.90;;;;;;5035268;28;20208;-83
2022/06/11 10:25:01;;;;;;;1.17;1.03;;;24.90;99.90;;;;;;5034342;28;20230;-83
2022/06/11 10:27:29;;;;;;;2.10;1.00;;;25.00;99.90;;;;;;5035598;28;20173;-82
2022/06/11 10:30:05;;;;;;;1.97;1.23;;;25.10;99.90;;;;;;5033431;28;20292;-82
2022/06/11 10:32:38;;;;;;;1.10;1.00;;;25.50;99.90;;;;;;5035770;28;20185;-82
2022/06/11 10:35:12;;;;;;;2.23;1.30;;;25.40;99.90;;;;;;5041046;28;20267;-84
2022/06/11 10:37:56;;;;;;;1.23;1.00;;;25.50;98.00;;;;;;5039342;28;20184;-84
2022/06/11 10:40:30;;;;;;;1.20;1.10;;;25.60;99.90;;;;;;5040498;28;20167;-83
2022/06/11 10:43:16;;;;;;;1.23;1.00;;;25.70;99.90;;;;;;5039075;28;20174;-84
2022/06/11 10:45:43;;;;;;;1.60;1.20;;;25.90;99.40;;;;;;5041173;28;20166;-84
2022/06/11 10:48:22;;;;;;;2.37;1.40;;;26.10;96.30;;;;;;5041752;28;20808;-84
2022/06/11 10:50:49;;;;;;;1.10;1.00;;;25.80;93.30;;;;;;5040288;28;20167;-83
2022/06/11 10:53:20;;;;;;;2.37;1.50;;;25.20;92.40;;;;;;5039517;28;20259;-84
2022/06/11 10:55:56;;;;;;;1.73;1.20;;;25.20;98.10;;;;;;5039015;28;20191;-84
2022/06/11 10:58:57;;;;;;;2.73;1.47;;;25.50;98.00;;;;;;5040493;28;20196;-84
2022/06/11 11:01:33;;;;;;;1.63;1.00;;;25.90;98.30;;;;;;5040446;28;20302;-84
2022/06/11 11:04:13;;;;;;;0.87;0.87;;;26.20;99.90;;;;;;5039330;28;20203;-84
2022/06/11 11:06:41;;;;;;;3.47;1.20;;;26.40;99.00;;;;;;5039355;28;20635;-84
2022/06/11 11:09:28;;;;;;;4.77;1.23;;;26.40;95.60;;;;;;5039119;28;20245;-84
2022/06/11 11:11:58;;;;;;;1.60;1.00;;;26.20;96.30;;;;;;5038983;28;20185;-85
2022/06/11 11:14:38;;;;;;;1.30;1.20;;;26.20;97.40;;;;;;5040018;28;20239;-85
2022/06/11 11:17:32;;;;;;;1.03;0.93;;;26.30;96.80;;;;;;5038304;28;20192;-84
2022/06/11 11:20:35;;;;;;;2.33;1.10;;;26.60;99.90;;;;;;5035939;28;20210;-84
2022/06/11 11:23:23;;;;;;;2.57;1.30;;;27.00;99.90;;;;;;5038287;28;20203;-85
2022/06/11 11:26:21;;;;;;;15.60;2.17;;;27.30;99.50;;;;;;5039481;28;20171;-84
2022/06/11 11:29:04;;;;;;;1.40;1.13;;;27.50;96.40;;;;;;5024416;28;20675;-84
2022/06/11 11:31:46;;;;;;;1.57;1.07;;;27.60;99.20;;;;;;5038120;28;20219;-85
2022/06/11 11:34:22;;;;;;;1.50;1.03;;;28.20;98.90;;;;;;5039786;28;20221;-84
2022/06/11 11:36:48;;;;;;;2.50;1.50;;;28.10;98.60;;;;;;5038447;28;20229;-84
2022/06/11 11:39:14;;;;;;;1.23;1.13;;;27.90;99.70;;;;;;5037997;28;20652;-83
2022/06/11 11:41:53;;;;;;;2.23;1.10;;;28.00;88.70;;;;;;5039582;28;20175;-84
2022/06/11 11:44:21;;;;;;;1.20;1.10;;;28.00;94.00;;;;;;5042056;28;20293;-84
2022/06/11 11:46:52;;;;;;;1.63;1.37;;;28.30;93.00;;;;;;5042694;28;20178;-84
2022/06/11 11:49:27;;;;;;;1.90;1.13;;;28.60;96.80;;;;;;5041892;28;20206;-84
2022/06/11 11:52:02;;;;;;;1.40;1.30;;;28.90;94.60;;;;;;5041887;28;20695;-85
2022/06/11 11:54:28;;;;;;;1.70;1.40;;;28.90;91.10;;;;;;5042558;28;20232;-85
2022/06/11 11:56:53;;;;;;;1.37;1.20;;;28.70;87.00;;;;;;5042802;28;20179;-85
2022/06/11 11:59:40;;;;;;;2.70;1.17;;;29.00;91.50;;;;;;5042886;28;20214;-85
2022/06/11 12:02:31;;;;;;;3.90;1.27;;;29.20;87.10;;;;;;5043582;28;20659;-85
2022/06/11 12:05:01;;;;;;;2.63;1.20;;;29.10;88.20;;;;;;5042955;28;20697;-84
2022/06/11 12:07:54;;;;;;;2.03;1.20;;;29.10;82.90;;;;;;5043496;28;20241;-85
2022/06/11 12:10:36;;;;;;;1.20;0.97;;;29.50;89.00;;;;;;5039878;28;20199;-85
2022/06/11 12:13:02;;;;;;;1.50;1.37;;;29.70;92.60;;;;;;5043276;28;20186;-85
2022/06/11 12:15:31;;;;;;;1.47;1.37;;;29.70;88.60;;;;;;5042968;28;20547;-85
2022/06/11 12:18:17;;;;;;;1.77;1.37;;;29.90;89.70;;;;;;5043327;28;20321;-85
2022/06/11 12:20:47;;;;;;;2.73;2.00;;;29.70;83.20;;;;;;5048464;28;20171;-84
2022/06/11 12:23:23;;;;;;;2.33;1.47;;;29.70;84.60;;;;;;5053515;28;20194;-85
2022/06/11 12:26:08;;;;;;;4.70;1.60;;;29.80;81.00;;;;;;5053689;28;20170;-85
2022/06/11 12:28:40;;;;;;;1.30;1.20;;;29.90;74.60;;;;;;5049161;28;20658;-85
2022/06/11 12:31:08;;;;;;;1.20;1.07;;;29.80;76.70;;;;;;5042866;28;20178;-84
2022/06/11 12:33:35;;;;;;;1.40;1.30;;;29.80;85.60;;;;;;5043081;28;20660;-84
2022/06/11 12:36:33;;;;;;;1.53;1.20;;;29.10;75.50;;;;;;5045285;28;20188;-84
2022/06/11 12:39:09;;;;;;;1.33;1.07;;;29.50;80.60;;;;;;5042990;28;20203;-85
2022/06/11 12:41:35;;;;;;;2.90;1.30;;;29.90;83.70;;;;;;5041860;28;20271;-85
2022/06/11 12:44:09;;;;;;;1.87;1.13;;;29.00;77.90;;;;;;5041703;28;20204;-84
2022/06/11 12:46:46;;;;;;;1.70;1.30;;;29.20;80.70;;;;;;5043320;28;20179;-84
2022/06/11 12:49:20;;;;;;;2.50;1.27;;;29.90;86.70;;;;;;5043354;28;20196;-85
2022/06/11 12:52:02;;;;;;;1.83;1.20;;;30.60;83.30;;;;;;5041688;28;20187;-85
2022/06/11 12:54:46;;;;;;;1.80;1.10;;;31.00;83.80;;;;;;5043264;28;20211;-85
2022/06/11 12:57:20;;;;;;;2.70;1.30;;;31.10;83.30;;;;;;5042169;28;20180;-85
2022/06/11 13:00:07;;;;;;;1.60;1.40;;;31.10;79.60;;;;;;5043304;28;20186;-85
2022/06/11 13:02:58;;;;;;;2.63;1.63;;;31.20;78.40;;;;;;5042007;28;20170;-85
2022/06/11 13:05:32;;;;;;;2.03;1.53;;;30.80;71.10;;;;;;5043210;28;20603;-85
2022/06/11 13:08:04;;;;;;;1.97;1.37;;;30.40;78.40;;;;;;5052132;28;20206;-83
2022/06/11 13:10:45;;;;;;;1.30;1.20;;;30.30;78.90;;;;;;5054811;28;20175;-83
2022/06/11 13:13:35;;;;;;;3.00;1.50;;;30.20;75.60;;;;;;5044469;28;20173;-85
2022/06/11 13:16:10;;;;;;;1.40;1.13;;;29.80;75.80;;;;;;5052270;28;20177;-83
2022/06/11 13:18:42;;;;;;;1.63;1.47;;;29.80;79.50;;;;;;5056134;28;20202;-83
2022/06/11 13:21:13;;;;;;;1.30;1.10;;;30.10;77.30;;;;;;5038030;28;20157;-82
2022/06/11 13:23:52;;;;;;;2.23;1.20;;;29.80;74.40;;;;;;5036295;28;20220;-83
2022/06/11 13:26:38;;;;;;;3.13;1.20;;;29.50;79.40;;;;;;5039505;28;20176;-84